Joelle — 9HWR8 — position and weather

sailwx.info

Track history (hours):
 
Tides and Currents Weather Stations Pressure Air Temp Water Temp Dewpoint Dewpoint Depression Visibility Wind Speed Wind Dir Waves Ship Positions

Joelle

Last reported at 2017-Nov-30 00:35 UTC. Time now 2018-Feb-20 17:35 UTC.
Position N 36°14' E 026°36'.
Warning: this ship's position is months out of date.

Length 108 m; draft 7.1 m.

MMSI: 256534000.

Date/timePositionNaut miles runAvg speedWind from/ knotsBaromVisibWave heightAir tempDewpointWater temp
2017-Nov-30 00:35N 36°14' E 026°36'311.0
2017-Nov-30 00:17N 36°16' E 026°32'310.9
2017-Nov-30 00:01N 36°17' E 026°29'510.8
2017-Nov-29 23:31N 36°20' E 026°23'510.9
2017-Nov-29 23:01N 36°23' E 026°18'510.8
2017-Nov-29 22:30N 36°26' E 026°12'510.8
2017-Nov-29 22:01N 36°28' E 026°06'511.0
2017-Nov-29 21:31N 36°31' E 026°00'510.9
2017-Nov-29 21:01N 36°34' E 025°54'510.9
2017-Nov-29 20:31N 36°36' E 025°48'511.0
2017-Nov-29 20:01N 36°39' E 025°42'511.0
2017-Nov-29 19:31N 36°42' E 025°36'510.7
2017-Nov-29 19:00N 36°44' E 025°30'511.0
2017-Nov-29 18:31N 36°47' E 025°24'510.7
2017-Nov-29 18:01N 36°49' E 025°18'510.9
2017-Nov-29 17:31N 36°50' E 025°12'611.2
2017-Nov-29 17:01N 36°51' E 025°05'611.1
2017-Nov-29 16:31N 36°52' E 024°58'510.0
2017-Nov-29 16:00N 36°55' E 024°52'510.9
2017-Nov-29 15:31N 36°60' E 024°50'511.0
2017-Nov-29 15:01N 37°05' E 024°48'511.0
2017-Nov-29 14:31N 37°10' E 024°45'510.9
2017-Nov-29 14:01N 37°15' E 024°43'510.9
2017-Nov-29 13:30N 37°20' E 024°40'511.0
2017-Nov-29 13:01N 37°25' E 024°38'510.9
2017-Nov-29 12:31N 37°30' E 024°35'611.0
2017-Nov-29 12:00N 37°35' E 024°33'611.1
2017-Nov-29 11:30N 37°41' E 024°30'2110.7
2017-Nov-29 09:34N 37°57' E 024°14'110.4
2017-Nov-29 09:31N 37°57' E 024°13'610.6
2017-Nov-29 08:59N 38°02' E 024°10'510.7
2017-Nov-29 08:29N 38°07' E 024°08'  
2017-Nov-26 18:07N 38°11' E 024°07'212.3
2017-Nov-26 17:59N 38°10' E 024°08'612.6
2017-Nov-26 17:30N 38°04' E 024°11'712.4
2017-Nov-26 16:58N 37°58' E 024°13'1412.3
2017-Nov-26 15:49N 37°47' E 024°25'412.1
2017-Nov-26 15:30N 37°45' E 024°28'611.8
2017-Nov-26 15:00N 37°40' E 024°32'612.5
2017-Nov-26 14:31N 37°34' E 024°35'612.6
2017-Nov-26 14:00N 37°28' E 024°37'612.4
2017-Nov-26 13:31N 37°22' E 024°40'612.3
2017-Nov-26 13:01N 37°16' E 024°43'612.2
2017-Nov-26 12:31N 37°11' E 024°46'612.4
2017-Nov-26 12:01N 37°05' E 024°48'612.4
2017-Nov-26 11:30N 36°59' E 024°52'611.9
2017-Nov-26 11:00N 36°54' E 024°56'611.7
2017-Nov-26 10:31N 36°52' E 025°03'611.8
2017-Nov-26 10:01N 36°50' E 025°10'611.7
2017-Nov-26 09:31N 36°49' E 025°17'612.1
2017-Nov-26 09:01N 36°47' E 025°24'612.4
2017-Nov-26 08:31N 36°44' E 025°31'612.1
2017-Nov-26 08:01N 36°41' E 025°38'611.9
2017-Nov-26 07:30N 36°38' E 025°44'612.0
2017-Nov-26 07:01N 36°35' E 025°51'612.3
2017-Nov-26 06:31N 36°32' E 025°57'612.0
2017-Nov-26 06:01N 36°29' E 026°04'612.1
2017-Nov-26 05:30N 36°26' E 026°10'612.1
2017-Nov-26 05:01N 36°23' E 026°17'612.1
2017-Nov-26 04:30N 36°20' E 026°23'612.2
2017-Nov-26 04:00N 36°17' E 026°30'612.0
2017-Nov-26 03:28N 36°14' E 026°37'  
Track history (hours):
 
Tides and Currents Weather Stations Pressure Air Temp Water Temp Dewpoint Dewpoint Depression Visibility Wind Speed Wind Dir Waves Ship Positions

Joelle

Last reported at 2017-Nov-30 00:35 UTC. Time now 2018-Feb-20 17:35 UTC.
Position N 36°14' E 026°36'.
Warning: this ship's position is months out of date.

Length 108 m; draft 7.1 m.

MMSI: 256534000.

Date/timePositionNaut miles runAvg speedWind from/ knotsBaromVisibWave heightAir tempDewpointWater temp
2017-Nov-30 00:35N 36°14' E 026°36'311.0
2017-Nov-30 00:17N 36°16' E 026°32'310.9
2017-Nov-30 00:01N 36°17' E 026°29'510.8
2017-Nov-29 23:31N 36°20' E 026°23'510.9
2017-Nov-29 23:01N 36°23' E 026°18'510.8
2017-Nov-29 22:30N 36°26' E 026°12'510.8
2017-Nov-29 22:01N 36°28' E 026°06'511.0
2017-Nov-29 21:31N 36°31' E 026°00'510.9
2017-Nov-29 21:01N 36°34' E 025°54'510.9
2017-Nov-29 20:31N 36°36' E 025°48'511.0
2017-Nov-29 20:01N 36°39' E 025°42'511.0
2017-Nov-29 19:31N 36°42' E 025°36'510.7
2017-Nov-29 19:00N 36°44' E 025°30'511.0
2017-Nov-29 18:31N 36°47' E 025°24'510.7
2017-Nov-29 18:01N 36°49' E 025°18'510.9
2017-Nov-29 17:31N 36°50' E 025°12'611.2
2017-Nov-29 17:01N 36°51' E 025°05'611.1
2017-Nov-29 16:31N 36°52' E 024°58'510.0
2017-Nov-29 16:00N 36°55' E 024°52'510.9
2017-Nov-29 15:31N 36°60' E 024°50'511.0
2017-Nov-29 15:01N 37°05' E 024°48'511.0
2017-Nov-29 14:31N 37°10' E 024°45'510.9
2017-Nov-29 14:01N 37°15' E 024°43'510.9
2017-Nov-29 13:30N 37°20' E 024°40'511.0
2017-Nov-29 13:01N 37°25' E 024°38'510.9
2017-Nov-29 12:31N 37°30' E 024°35'611.0
2017-Nov-29 12:00N 37°35' E 024°33'611.1
2017-Nov-29 11:30N 37°41' E 024°30'2110.7
2017-Nov-29 09:34N 37°57' E 024°14'110.4
2017-Nov-29 09:31N 37°57' E 024°13'610.6
2017-Nov-29 08:59N 38°02' E 024°10'510.7
2017-Nov-29 08:29N 38°07' E 024°08'  
2017-Nov-26 18:07N 38°11' E 024°07'212.3
2017-Nov-26 17:59N 38°10' E 024°08'612.6
2017-Nov-26 17:30N 38°04' E 024°11'712.4
2017-Nov-26 16:58N 37°58' E 024°13'1412.3
2017-Nov-26 15:49N 37°47' E 024°25'412.1
2017-Nov-26 15:30N 37°45' E 024°28'611.8
2017-Nov-26 15:00N 37°40' E 024°32'612.5
2017-Nov-26 14:31N 37°34' E 024°35'612.6
2017-Nov-26 14:00N 37°28' E 024°37'612.4
2017-Nov-26 13:31N 37°22' E 024°40'612.3
2017-Nov-26 13:01N 37°16' E 024°43'612.2
2017-Nov-26 12:31N 37°11' E 024°46'612.4
2017-Nov-26 12:01N 37°05' E 024°48'612.4
2017-Nov-26 11:30N 36°59' E 024°52'611.9
2017-Nov-26 11:00N 36°54' E 024°56'611.7
2017-Nov-26 10:31N 36°52' E 025°03'611.8
2017-Nov-26 10:01N 36°50' E 025°10'611.7
2017-Nov-26 09:31N 36°49' E 025°17'612.1
2017-Nov-26 09:01N 36°47' E 025°24'612.4
2017-Nov-26 08:31N 36°44' E 025°31'612.1
2017-Nov-26 08:01N 36°41' E 025°38'611.9
2017-Nov-26 07:30N 36°38' E 025°44'612.0
2017-Nov-26 07:01N 36°35' E 025°51'612.3
2017-Nov-26 06:31N 36°32' E 025°57'612.0
2017-Nov-26 06:01N 36°29' E 026°04'612.1
2017-Nov-26 05:30N 36°26' E 026°10'612.1
2017-Nov-26 05:01N 36°23' E 026°17'612.1
2017-Nov-26 04:30N 36°20' E 026°23'612.2
2017-Nov-26 04:00N 36°17' E 026°30'612.0
2017-Nov-26 03:28N 36°14' E 026°37'  

Dump ship's entire track history